Time;durP1;ratioP1;P1;durP2;ratioP2;P2;SDS_P1;SDS_P2;PMS_P1;PMS_P2;Temp;Humidity;BMP_temperature;BMP_pressure;BME280_temperature;BME280_humidity;BME280_pressure;Samples;Min_cycle;Max_cycle;Signal;HPM_P1;HPM_P2
2022/10/06 00:04:27;;;;;;;6.55;3.08;;;;;;;16.44;67.81;100905.84;10443776;28;20110;-67
2022/10/06 00:09:29;;;;;;;7.20;3.30;;;;;;;16.30;67.88;100910.38;10426162;28;20041;-68
2022/10/06 00:14:30;;;;;;;10.82;3.72;;;;;;;16.22;68.15;100905.13;10444840;28;20729;-67
2022/10/06 00:19:32;;;;;;;4.28;2.97;;;;;;;16.14;68.25;100925.09;10428219;28;20029;-66
2022/10/06 00:24:33;;;;;;;6.72;3.10;;;;;;;16.05;69.00;100947.97;10444453;28;20083;-66
2022/10/06 00:29:35;;;;;;;7.25;3.53;;;;;;;16.07;69.10;100956.75;10445067;28;20065;-66
2022/10/06 00:34:36;;;;;;;6.05;3.25;;;;;;;16.08;69.08;100963.03;10445073;28;20068;-66
2022/10/06 00:39:38;;;;;;;8.30;3.28;;;;;;;16.04;68.82;100968.00;10444639;28;20491;-66
2022/10/06 00:44:39;;;;;;;7.05;3.15;;;;;;;16.00;69.09;100977.56;10442866;28;20116;-66
2022/10/06 00:49:43;;;;;;;6.70;3.10;;;;;;;15.97;69.03;100984.19;10442483;28;20712;-67
2022/10/06 00:54:44;;;;;;;6.65;4.30;;;;;;;15.98;69.86;101001.34;10425764;28;20079;-67
2022/10/06 00:59:46;;;;;;;6.57;4.28;;;;;;;16.03;70.30;100994.28;10427061;28;20124;-67
2022/10/06 01:04:51;;;;;;;6.07;3.78;;;;;;;16.19;70.55;101001.31;10445103;28;20135;-67
2022/10/06 01:09:55;;;;;;;6.10;3.83;;;;;;;16.35;70.51;100996.59;10443142;28;20080;-67
2022/10/06 01:14:56;;;;;;;5.20;3.50;;;;;;;16.42;70.42;100997.47;10442830;28;20479;-67
2022/10/06 01:20:10;;;;;;;6.97;4.05;;;;;;;16.60;70.32;101005.09;10447555;28;20120;-67
2022/10/06 01:25:14;;;;;;;9.73;4.00;;;;;;;16.68;70.48;101017.69;10434218;28;20061;-67
2022/10/06 01:30:21;;;;;;;4.53;2.85;;;;;;;16.72;70.34;101024.41;10452968;28;20072;-66
2022/10/06 01:35:23;;;;;;;;;;;;;;;16.84;69.92;101029.09;10450851;28;20459;-67
2022/10/06 01:40:27;;;;;;;8.18;3.42;;;;;;;16.94;70.09;101027.88;10451628;28;19927;-67
2022/10/06 01:45:29;;;;;;;6.85;3.50;;;;;;;16.97;70.22;101047.34;10450140;28;20049;-67
2022/10/06 01:50:30;;;;;;;7.05;3.53;;;;;;;16.90;70.59;101051.88;10447810;28;20072;-67
2022/10/06 01:55:32;;;;;;;6.82;2.85;;;;;;;16.98;70.50;101065.31;10450294;28;20128;-68
2022/10/06 02:00:33;;;;;;;8.05;2.80;;;;;;;16.91;70.91;101091.59;10450129;28;20556;-67
2022/10/06 02:05:35;;;;;;;3.13;2.60;;;;;;;17.05;71.02;101098.78;10418258;28;20106;-67
2022/10/06 02:10:36;;;;;;;4.90;2.65;;;;;;;17.02;70.93;101101.03;10447670;28;20655;-66
2022/10/06 02:15:37;;;;;;;5.05;2.30;;;;;;;17.19;70.78;101101.56;10449465;28;20080;-66
2022/10/06 02:20:39;;;;;;;8.32;2.15;;;;;;;17.22;70.20;101112.88;10430361;28;20041;-66
2022/10/06 02:25:40;;;;;;;1.00;0.30;;;;;;;17.25;69.55;101114.34;10449943;28;20076;-66
2022/10/06 02:30:43;;;;;;;0.77;0.65;;;;;;;17.22;68.59;101129.19;10445728;28;20509;-66
2022/10/06 02:35:45;;;;;;;1.02;0.15;;;;;;;17.30;67.38;101132.75;10447203;28;20060;-68
2022/10/06 02:40:47;;;;;;;0.20;0.10;;;;;;;17.38;66.87;101144.31;10447222;28;20045;-66
2022/10/06 02:46:03;;;;;;;2.88;0.10;;;;;;;17.37;66.13;101147.22;10448464;28;20368;-66
2022/10/06 02:51:07;;;;;;;1.70;0.10;;;;;;;17.49;66.00;101171.97;10448318;28;20107;-66
2022/10/06 02:56:15;;;;;;;1.00;0.10;;;;;;;17.51;65.79;101173.44;10449499;28;20064;-67
2022/10/06 03:01:20;;;;;;;0.85;0.20;;;;;;;17.66;65.16;101177.91;10448414;28;20052;-67
2022/10/06 03:06:24;;;;;;;0.93;0.10;;;;;;;17.83;64.38;101188.25;10445129;28;20044;-65
2022/10/06 03:11:34;;;;;;;0.98;0.10;;;;;;;17.87;64.32;101194.16;10447426;28;20102;-66
2022/10/06 03:16:37;;;;;;;0.17;0.00;;;;;;;18.00;63.88;101199.59;10446472;28;20080;-66
2022/10/06 03:21:42;;;;;;;0.68;0.13;;;;;;;17.91;63.87;101195.41;10446440;28;20079;-66
2022/10/06 03:26:46;;;;;;;0.20;0.00;;;;;;;17.80;63.05;101191.34;10425635;28;20068;-66
2022/10/06 03:31:47;;;;;;;1.20;0.10;;;;;;;17.77;62.32;101220.81;10447086;28;20558;-67
2022/10/06 03:36:49;;;;;;;1.75;0.20;;;;;;;17.67;61.68;101234.78;10445797;28;20041;-67
2022/10/06 03:41:50;;;;;;;0.43;0.10;;;;;;;17.67;60.94;101228.53;10428026;28;20132;-66
2022/10/06 03:46:52;;;;;;;1.20;0.10;;;;;;;17.72;60.52;101250.53;10446509;28;20073;-67
2022/10/06 03:51:53;;;;;;;0.55;0.10;;;;;;;17.77;59.96;101246.16;10446891;28;20053;-67
2022/10/06 03:56:55;;;;;;;1.55;0.10;;;;;;;17.71;59.67;101254.28;10445407;28;20132;-67
2022/10/06 04:01:56;;;;;;;1.13;0.10;;;;;;;17.75;59.16;101270.00;10445441;28;20052;-66
2022/10/06 04:06:58;;;;;;;2.22;0.75;;;;;;;17.78;59.10;101274.19;10445244;28;20136;-66
2022/10/06 04:11:59;;;;;;;2.92;0.47;;;;;;;17.82;58.85;101286.34;10445910;28;20160;-67
2022/10/06 04:17:01;;;;;;;2.60;0.22;;;;;;;17.87;58.76;101289.34;10446349;28;20076;-67
2022/10/06 04:22:02;;;;;;;2.60;0.13;;;;;;;17.92;58.72;101302.34;10445454;28;20150;-67
2022/10/06 04:32:24;;;;;;;1.80;0.20;;;;;;;17.80;59.82;101318.34;10445970;28;20140;-67
2022/10/06 04:37:27;;;;;;;2.75;0.40;;;;;;;17.77;60.04;101324.16;10446226;28;20045;-67
2022/10/06 04:42:28;;;;;;;3.90;0.22;;;;;;;17.78;59.97;101337.59;10443517;28;20084;-66
2022/10/06 04:47:35;;;;;;;1.58;0.20;;;;;;;17.70;60.27;101337.75;10444565;28;20045;-66
2022/10/06 04:52:36;;;;;;;1.33;0.20;;;;;;;17.63;60.49;101358.59;10445223;28;20111;-66
2022/10/06 04:57:38;;;;;;;1.15;0.10;;;;;;;17.46;60.77;101358.06;10426754;28;20065;-67
2022/10/06 05:02:39;;;;;;;1.55;0.20;;;;;;;17.53;60.80;101364.38;10426788;28;20037;-67
2022/10/06 05:07:44;;;;;;;3.40;0.30;;;;;;;17.27;61.07;101375.03;10443504;28;20041;-66
2022/10/06 05:12:46;;;;;;;3.95;0.85;;;;;;;17.15;60.97;101388.28;10425325;28;20052;-66
2022/10/06 05:17:47;;;;;;;2.05;0.17;;;;;;;17.13;60.81;101396.63;10443467;28;20063;-66
2022/10/06 05:22:48;;;;;;;3.03;0.20;;;;;;;17.11;60.65;101409.56;10444031;28;20101;-67
2022/10/06 05:27:50;;;;;;;4.05;0.55;;;;;;;16.88;61.11;101419.75;10442995;28;20079;-66
2022/10/06 05:32:51;;;;;;;1.58;0.10;;;;;;;16.76;61.17;101438.38;10423284;28;20075;-70
2022/10/06 05:37:53;;;;;;;2.85;0.10;;;;;;;16.58;61.56;101444.22;10422484;28;20072;-70
2022/10/06 05:42:54;;;;;;;5.60;0.95;;;;;;;16.53;61.20;101454.78;10422417;28;20132;-70
2022/10/06 05:47:56;;;;;;;0.85;0.20;;;;;;;16.28;60.71;101465.94;10442695;28;20071;-70
2022/10/06 05:52:57;;;;;;;2.53;0.20;;;;;;;16.31;59.99;101464.72;10442839;28;20575;-71
2022/10/06 05:57:59;;;;;;;2.45;0.40;;;;;;;16.30;59.54;101474.72;10443633;28;20098;-71
2022/10/06 06:03:01;;;;;;;4.13;0.20;;;;;;;16.28;59.24;101484.09;10443901;28;20072;-69
2022/10/06 06:08:02;;;;;;;5.13;0.75;;;;;;;16.31;59.20;101495.44;10429986;28;20049;-71
2022/10/06 06:13:03;;;;;;;3.85;0.40;;;;;;;16.27;59.33;101499.50;10431928;28;20083;-71
2022/10/06 06:18:05;;;;;;;6.25;0.40;;;;;;;16.21;59.04;101522.81;10448033;28;20072;-71
2022/10/06 06:23:06;;;;;;;6.00;0.40;;;;;;;16.25;58.47;101523.28;10443229;28;20099;-69
2022/10/06 06:28:08;;;;;;;8.02;0.40;;;;;;;16.25;58.35;101528.69;10444240;28;20072;-71
2022/10/06 06:33:09;;;;;;;5.28;0.60;;;;;;;16.19;58.49;101532.16;10430424;28;20071;-70
2022/10/06 06:38:11;;;;;;;2.83;0.30;;;;;;;16.18;58.52;101550.31;10444456;28;20098;-70
2022/10/06 06:43:12;;;;;;;6.38;0.40;;;;;;;16.22;58.67;101570.63;10443747;28;20546;-72
2022/10/06 06:48:15;;;;;;;2.58;0.30;;;;;;;16.29;58.63;101578.03;10443477;28;20723;-70
2022/10/06 06:53:16;;;;;;;4.80;0.85;;;;;;;16.26;58.67;101590.09;10445207;28;20490;-72
2022/10/06 06:58:19;;;;;;;4.50;0.50;;;;;;;16.39;58.70;101605.75;10442008;28;20099;-71
2022/10/06 07:03:21;;;;;;;3.85;0.60;;;;;;;16.27;57.00;101618.91;10440844;28;20099;-72
2022/10/06 07:08:45;;;;;;;6.63;0.35;;;;;;;16.31;56.30;101620.25;10444461;28;20057;-70
2022/10/06 07:13:51;;;;;;;4.55;0.57;;;;;;;16.26;56.15;101622.66;10447913;28;20077;-73
2022/10/06 07:29:33;;;;;;;3.72;0.30;;;;;;;16.61;55.48;101651.03;10445272;28;20056;-72
2022/10/06 07:34:35;;;;;;;6.32;0.68;;;;;;;16.64;55.01;101645.22;10444950;28;20061;-73
2022/10/06 07:39:37;;;;;;;8.55;1.35;;;;;;;16.74;54.93;101653.09;10444882;28;20045;-71
2022/10/06 07:44:38;;;;;;;5.38;1.05;;;;;;;17.00;54.69;101660.88;10424183;28;20073;-72
2022/10/06 07:49:45;;;;;;;4.80;0.30;;;;;;;16.80;54.27;101659.66;10424595;28;20037;-73
2022/10/06 07:54:48;;;;;;;3.60;0.40;;;;;;;16.80;53.48;101663.22;10444581;28;20128;-71
2022/10/06 07:59:49;;;;;;;8.85;0.93;;;;;;;16.88;53.85;101675.06;10445590;28;20136;-73
2022/10/06 08:04:51;;;;;;;4.55;0.50;;;;;;;16.91;53.47;101683.69;10444010;28;20530;-73
2022/10/06 08:09:53;;;;;;;5.85;1.05;;;;;;;16.92;53.37;101690.81;10440541;28;20726;-72
2022/10/06 08:14:54;;;;;;;10.15;0.70;;;;;;;16.93;52.71;101694.38;10418327;28;20527;-73
2022/10/06 08:19:56;;;;;;;3.75;0.40;;;;;;;16.85;52.53;101700.72;10443589;28;20029;-71
2022/10/06 08:24:58;;;;;;;6.47;0.60;;;;;;;16.92;52.01;101714.41;10440061;28;20110;-72
2022/10/06 08:30:10;;;;;;;5.53;0.40;;;;;;;17.02;51.51;101718.56;10424166;28;20041;-71
2022/10/06 08:35:13;;;;;;;6.95;0.40;;;;;;;17.32;51.24;101728.59;10442352;28;20041;-72
2022/10/06 08:40:14;;;;;;;3.63;0.38;;;;;;;17.24;50.64;101729.56;10437086;28;20103;-71
2022/10/06 08:45:23;;;;;;;9.52;0.47;;;;;;;17.30;50.07;101733.38;10424085;28;20041;-73
2022/10/06 08:50:27;;;;;;;5.75;0.65;;;;;;;17.47;50.24;101729.47;10425457;28;20041;-72
2022/10/06 08:55:40;;;;;;;6.70;0.43;;;;;;;17.75;49.57;101734.22;10442123;28;20103;-71
2022/10/06 09:00:42;;;;;;;7.35;0.60;;;;;;;17.73;49.61;101741.72;10441747;28;20053;-72
2022/10/06 09:05:45;;;;;;;6.63;0.60;;;;;;;17.64;49.40;101741.84;10440730;28;20084;-70
2022/10/06 09:11:05;;;;;;;8.32;1.90;;;;;;;17.75;49.15;101748.69;10444612;28;20041;-70
2022/10/06 09:16:16;;;;;;;4.60;0.50;;;;;;;17.91;48.89;101749.53;10441639;28;20041;-71
2022/10/06 09:21:29;;;;;;;5.22;1.17;;;;;;;18.18;48.32;101761.56;10437876;28;20673;-72
2022/10/06 09:26:31;;;;;;;7.40;0.60;;;;;;;18.30;47.13;101760.03;10441540;28;20095;-71
2022/10/06 09:31:38;;;;;;;3.67;0.32;;;;;;;18.16;46.25;101760.94;10440685;28;20522;-71
2022/10/06 09:36:58;;;;;;;;;;;;;;;18.38;46.76;101756.34;10427942;28;20045;-73
2022/10/06 09:42:34;;;;;;;4.68;0.50;;;;;;;18.62;46.43;101763.28;10445912;28;19979;-71
2022/10/06 09:47:43;;;;;;;7.97;0.50;;;;;;;18.82;46.05;101767.09;10445591;28;20079;-70
2022/10/06 09:53:02;;;;;;;3.88;0.60;;;;;;;18.76;46.18;101773.31;10449417;28;20048;-72
2022/10/06 09:58:20;;;;;;;6.93;0.50;;;;;;;18.97;45.86;101768.88;10449291;28;20103;-72
2022/10/06 10:03:30;;;;;;;7.28;0.50;;;;;;;19.10;45.25;101762.72;10441570;28;20072;-72
2022/10/06 10:08:31;;;;;;;6.18;0.60;;;;;;;19.11;45.11;101778.03;10445402;28;20049;-70
2022/10/06 10:13:42;;;;;;;5.22;0.90;;;;;;;19.36;45.05;101762.06;10447004;28;20139;-72
2022/10/06 10:18:48;;;;;;;5.35;0.30;;;;;;;19.29;44.09;101766.63;10443609;28;20094;-70
2022/10/06 10:23:58;;;;;;;8.15;0.30;;;;;;;19.17;43.68;101763.59;10446452;28;20696;-73
2022/10/06 10:29:37;;;;;;;3.63;0.40;;;;;;;19.15;43.64;101757.50;10441885;28;20057;-73
2022/10/06 10:35:11;;;;;;;5.57;0.40;;;;;;;19.42;43.69;101762.09;10447336;28;20106;-73
2022/10/06 10:40:27;;;;;;;5.28;0.40;;;;;;;19.48;43.19;101760.47;10448600;28;20071;-71
2022/10/06 10:45:35;;;;;;;4.57;0.30;;;;;;;19.29;41.98;101770.19;10446282;28;20095;-70
2022/10/06 10:50:48;;;;;;;3.70;0.35;;;;;;;19.33;41.76;101765.19;10446055;28;20076;-72
2022/10/06 10:55:52;;;;;;;5.95;0.30;;;;;;;19.27;41.32;101771.44;10444744;28;20110;-71
2022/10/06 11:01:17;;;;;;;7.57;0.70;;;;;;;19.31;40.98;101768.13;10424850;28;20056;-70
2022/10/06 11:06:43;;;;;;;5.10;0.57;;;;;;;19.46;40.87;101773.47;10444584;28;20450;-72
2022/10/06 11:12:00;;;;;;;6.03;0.50;;;;;;;19.37;40.66;101771.91;10446227;28;20103;-73
2022/10/06 11:17:17;;;;;;;7.00;0.30;;;;;;;19.46;40.54;101773.47;10445201;28;20041;-72
2022/10/06 11:22:37;;;;;;;4.22;0.45;;;;;;;19.44;40.55;101769.25;10427379;28;20072;-72
2022/10/06 11:27:51;;;;;;;5.13;0.40;;;;;;;19.77;40.01;101764.84;10441107;28;20140;-72
2022/10/06 11:33:24;;;;;;;6.32;0.63;;;;;;;19.73;40.12;101763.56;10447232;28;20518;-70
2022/10/06 11:38:44;;;;;;;3.72;0.20;;;;;;;19.93;39.84;101763.66;10443256;28;20084;-71
2022/10/06 11:44:03;;;;;;;5.13;0.30;;;;;;;20.36;38.97;101757.94;10445552;28;20114;-71
2022/10/06 11:49:29;;;;;;;3.05;0.30;;;;;;;20.36;39.14;101751.66;10420228;28;20079;-67
2022/10/06 11:54:52;;;;;;;6.05;1.15;;;;;;;20.93;38.93;101744.81;10422947;28;20119;-71
2022/10/06 12:00:15;;;;;;;3.30;0.45;;;;;;;21.28;37.89;101743.69;10442357;28;20068;-69
2022/10/06 12:05:18;;;;;;;5.97;0.50;;;;;;;21.01;37.71;101743.75;10427029;28;20041;-71
2022/10/06 12:10:48;;;;;;;5.57;0.70;;;;;;;21.39;36.92;101735.69;10439853;28;20041;-70
2022/10/06 12:16:08;;;;;;;5.55;0.40;;;;;;;21.28;37.06;101735.50;10439271;28;20079;-70
2022/10/06 12:21:32;;;;;;;2.78;0.35;;;;;;;21.84;36.47;101720.41;10430450;28;20049;-70
2022/10/06 12:26:50;;;;;;;5.90;0.73;;;;;;;21.86;36.18;101721.03;10439763;28;20049;-70
2022/10/06 12:32:01;;;;;;;7.00;0.38;;;;;;;22.54;35.54;101723.19;10446118;28;20136;-71
2022/10/06 12:37:19;;;;;;;4.78;0.70;;;;;;;23.00;34.76;101711.00;10439597;28;20404;-71
2022/10/06 12:42:26;;;;;;;2.25;0.50;;;;;;;23.10;34.56;101708.59;10417680;28;20135;-70
2022/10/06 12:47:39;;;;;;;6.28;0.45;;;;;;;23.27;34.29;101702.53;10443218;28;20175;-71
2022/10/06 12:52:54;;;;;;;3.28;0.30;;;;;;;23.50;34.02;101699.09;10425310;28;20048;-71
2022/10/06 12:57:56;;;;;;;6.88;0.70;;;;;;;23.82;33.46;101708.03;10420066;28;20401;-71
2022/10/06 13:02:59;;;;;;;6.03;0.40;;;;;;;23.74;32.41;101711.91;10444062;28;20064;-70
2022/10/06 13:08:04;;;;;;;4.28;0.25;;;;;;;23.55;32.18;101705.59;10440382;28;20075;-72
2022/10/06 13:13:19;;;;;;;4.80;0.63;;;;;;;23.51;32.48;101700.78;10436226;28;20140;-72
2022/10/06 13:18:22;;;;;;;4.22;0.30;;;;;;;23.66;32.11;101694.94;10450643;28;20131;-72
2022/10/06 13:23:27;;;;;;;3.78;0.38;;;;;;;23.83;32.25;101690.47;10432278;28;20466;-72
2022/10/06 13:28:35;;;;;;;;;;;;;;;24.00;33.26;101698.09;10451715;28;20049;-71
2022/10/06 13:33:39;;;;;;;2.15;0.65;;;;;;;24.08;32.25;101692.28;10444037;28;19928;-71
2022/10/06 13:38:41;;;;;;;8.40;0.98;;;;;;;24.12;31.97;101690.75;10426736;28;20462;-71
2022/10/06 13:43:47;;;;;;;4.22;0.93;;;;;;;24.09;31.92;101681.06;10451716;28;20053;-72
2022/10/06 13:48:58;;;;;;;4.40;0.30;;;;;;;24.27;31.36;101682.91;10447301;28;20116;-72
2022/10/06 13:54:21;;;;;;;4.60;0.45;;;;;;;23.54;32.08;101692.13;10449969;28;20068;-70
2022/10/06 13:59:38;;;;;;;4.25;0.40;;;;;;;23.74;32.78;101681.72;10446356;28;20915;-72
2022/10/06 14:04:40;;;;;;;7.57;0.70;;;;;;;23.74;32.60;101683.63;10448542;28;20044;-69
2022/10/06 14:09:42;;;;;;;10.23;0.68;;;;;;;23.69;32.84;101670.56;10450102;28;20076;-69
2022/10/06 14:14:49;;;;;;;3.60;0.30;;;;;;;23.63;32.21;101673.41;10445829;28;20564;-69
2022/10/06 14:19:51;;;;;;;4.28;0.95;;;;;;;23.58;32.32;101676.84;10448289;28;20525;-68
2022/10/06 14:24:52;;;;;;;7.25;0.50;;;;;;;23.25;32.87;101671.75;10449976;28;20469;-70
2022/10/06 14:29:54;;;;;;;5.57;0.40;;;;;;;23.06;32.94;101677.22;10450406;28;20076;-71
2022/10/06 14:34:56;;;;;;;4.72;0.47;;;;;;;23.15;33.27;101673.09;10448584;28;20107;-69
2022/10/06 14:39:58;;;;;;;1.38;0.20;;;;;;;23.01;33.45;101663.31;10443666;28;20140;-70
2022/10/06 14:44:59;;;;;;;3.90;0.40;;;;;;;22.77;33.10;101670.53;10420021;28;20041;-69
2022/10/06 14:50:01;;;;;;;5.90;0.28;;;;;;;22.88;33.03;101663.44;10446739;28;20047;-70
2022/10/06 14:55:05;;;;;;;3.55;0.73;;;;;;;22.68;33.19;101658.97;10423723;28;20429;-70
2022/10/06 15:00:08;;;;;;;4.68;0.30;;;;;;;22.74;33.42;101660.81;10443880;28;20041;-69
2022/10/06 15:05:09;;;;;;;5.78;0.50;;;;;;;23.12;33.28;101661.75;10444827;28;20041;-70
2022/10/06 15:10:10;;;;;;;6.57;0.40;;;;;;;22.73;33.87;101669.28;10445402;28;20124;-70
2022/10/06 15:15:12;;;;;;;6.60;0.40;;;;;;;22.65;34.07;101662.19;10447248;28;20135;-69
2022/10/06 15:20:16;;;;;;;5.38;0.35;;;;;;;22.46;34.49;101649.50;10448012;28;20045;-70
2022/10/06 15:30:40;;;;;;;5.78;0.30;;;;;;;22.09;34.55;101639.16;10444830;28;20061;-69
2022/10/06 15:35:59;;;;;;;7.35;0.50;;;;;;;22.10;34.48;101638.13;10442648;28;20072;-69
2022/10/06 15:41:03;;;;;;;6.68;0.47;;;;;;;22.06;35.03;101641.50;10444904;28;20045;-70
2022/10/06 15:46:04;;;;;;;6.07;1.55;;;;;;;21.95;35.35;101634.84;10427227;28;20483;-70
2022/10/06 15:51:08;;;;;;;6.43;0.70;;;;;;;21.93;35.79;101637.81;10401772;28;20061;-68
2022/10/06 15:56:10;;;;;;;7.25;0.40;;;;;;;21.84;35.42;101636.41;10402485;28;20069;-68
2022/10/06 16:01:32;;;;;;;6.38;0.40;;;;;;;21.63;35.48;101640.28;10403035;28;20049;-71
2022/10/06 16:11:41;;;;;;;6.25;0.80;;;;;;;21.22;36.69;101646.09;10402957;28;20120;-71
2022/10/06 16:16:44;;;;;;;3.75;0.38;;;;;;;21.00;37.02;101644.47;10403858;28;21077;-69
2022/10/06 16:21:48;;;;;;;2.60;0.50;;;;;;;20.86;36.69;101641.97;10399255;28;20041;-70
2022/10/06 16:26:50;;;;;;;7.55;0.77;;;;;;;20.66;37.26;101637.38;10396829;28;20057;-68
2022/10/06 16:31:52;;;;;;;5.45;1.02;;;;;;;20.49;37.66;101638.81;10395974;28;20041;-64
2022/10/06 16:36:53;;;;;;;4.10;0.80;;;;;;;20.23;37.72;101635.00;10412024;28;20114;-66
2022/10/06 16:41:54;;;;;;;4.18;0.85;;;;;;;20.08;38.29;101640.66;10409368;28;20085;-66
2022/10/06 16:46:56;;;;;;;4.78;0.65;;;;;;;19.88;39.45;101646.06;10416331;28;20053;-70
2022/10/06 16:51:57;;;;;;;3.45;0.77;;;;;;;19.68;40.45;101656.06;10436815;28;20635;-71
2022/10/06 16:57:05;;;;;;;6.03;0.90;;;;;;;19.41;41.13;101651.34;10442807;28;20136;-71
2022/10/06 17:02:07;;;;;;;6.25;1.50;;;;;;;19.15;41.76;101651.19;10439809;28;20045;-72
2022/10/06 17:07:09;;;;;;;7.85;1.70;;;;;;;18.93;42.44;101653.97;10438877;28;20123;-73
2022/10/06 17:12:10;;;;;;;8.68;1.70;;;;;;;18.71;43.16;101661.34;10431936;28;20051;-74
2022/10/06 17:17:12;;;;;;;7.97;2.00;;;;;;;18.51;44.08;101657.63;10441624;28;20061;-73
2022/10/06 17:22:14;;;;;;;30.80;7.90;;;;;;;18.25;45.16;101667.22;10436274;28;20084;-69
2022/10/06 17:27:16;;;;;;;9.07;1.00;;;;;;;17.87;45.43;101672.91;10441576;28;20061;-73
2022/10/06 17:32:17;;;;;;;7.40;1.25;;;;;;;17.69;45.52;101669.72;10433613;28;20122;-71
2022/10/06 17:37:20;;;;;;;6.32;1.52;;;;;;;17.48;46.27;101670.50;10422217;28;20127;-67
2022/10/06 17:42:22;;;;;;;7.22;2.05;;;;;;;17.37;46.74;101669.09;10436941;28;20068;-67
2022/10/06 17:47:24;;;;;;;8.52;2.75;;;;;;;17.21;47.14;101672.84;10439121;28;20085;-67
2022/10/06 17:52:26;;;;;;;8.15;2.33;;;;;;;17.04;47.92;101678.47;10436817;28;20060;-66
2022/10/06 17:57:29;;;;;;;8.40;2.80;;;;;;;16.85;48.46;101682.56;10438459;28;20515;-67
2022/10/06 18:02:30;;;;;;;9.20;3.50;;;;;;;16.65;49.39;101676.78;10443394;28;20067;-67
2022/10/06 18:07:33;;;;;;;10.20;3.20;;;;;;;16.43;50.19;101688.50;10449395;28;20439;-67
2022/10/06 18:12:37;;;;;;;7.25;2.13;;;;;;;16.19;51.01;101682.25;10430081;28;20131;-67
2022/10/06 18:17:41;;;;;;;12.40;4.53;;;;;;;15.98;51.64;101679.31;10449721;28;20051;-67
2022/10/06 18:22:42;;;;;;;11.82;3.35;;;;;;;15.73;52.21;101686.75;10426292;28;20119;-67
2022/10/06 18:27:46;;;;;;;10.15;1.70;;;;;;;15.50;52.97;101682.09;10442520;28;20064;-66
2022/10/06 18:32:47;;;;;;;6.50;2.92;;;;;;;15.45;53.10;101685.28;10448025;28;20106;-66
2022/10/06 18:38:09;;;;;;;13.65;3.45;;;;;;;15.34;53.52;101674.00;10444684;28;20037;-66
2022/10/06 18:43:10;;;;;;;11.10;1.48;;;;;;;15.20;53.98;101689.09;10445655;28;20125;-70
2022/10/06 18:53:37;;;;;;;2.58;0.95;;;;;;;14.81;55.03;101685.31;10447812;28;20068;-69
2022/10/06 18:58:40;;;;;;;3.60;0.80;;;;;;;14.68;55.18;101685.81;10447401;28;20072;-69
2022/10/06 19:03:41;;;;;;;7.00;1.55;;;;;;;14.60;55.73;101684.97;10442477;28;20492;-67
2022/10/06 19:08:42;;;;;;;7.15;1.63;;;;;;;14.47;56.01;101678.19;10424797;28;20072;-68
2022/10/06 19:13:48;;;;;;;9.73;2.00;;;;;;;14.36;56.45;101686.63;10443680;28;20079;-68
2022/10/06 19:18:49;;;;;;;4.15;1.10;;;;;;;14.29;56.74;101688.28;10422512;28;20463;-68
2022/10/06 19:23:51;;;;;;;6.30;1.27;;;;;;;14.06;56.81;101686.25;10447406;28;20448;-68
2022/10/06 19:28:52;;;;;;;7.22;2.70;;;;;;;13.96;57.22;101690.09;10447667;28;20495;-69
2022/10/06 19:33:58;;;;;;;6.05;1.80;;;;;;;13.82;57.27;101703.25;10445939;28;20139;-68
2022/10/06 19:39:05;;;;;;;5.75;1.40;;;;;;;13.75;58.16;101699.50;10446409;28;20045;-68
2022/10/06 19:44:07;;;;;;;;;;;;;;;13.70;56.95;101704.53;10448863;28;20132;-70
2022/10/06 19:49:09;;;;;;;4.88;1.30;;;;;;;13.58;57.55;101698.59;10445770;28;19974;-68
2022/10/06 19:54:11;;;;;;;6.28;1.88;;;;;;;13.52;57.65;101706.50;10427361;28;20137;-68
2022/10/06 19:59:20;;;;;;;5.75;1.83;;;;;;;13.46;58.28;101700.72;10445774;28;20135;-68
2022/10/06 20:04:22;;;;;;;6.22;1.40;;;;;;;13.41;58.19;101711.19;10442897;28;20115;-68
2022/10/06 20:09:24;;;;;;;7.32;1.58;;;;;;;13.34;58.17;101709.28;10436564;28;20056;-68
2022/10/06 20:14:26;;;;;;;12.40;7.53;;;;;;;13.19;58.82;101715.25;10441839;28;20124;-68
2022/10/06 20:19:27;;;;;;;11.82;5.65;;;;;;;12.99;59.23;101711.91;10437383;28;20517;-67
2022/10/06 20:24:30;;;;;;;8.02;2.38;;;;;;;12.99;59.60;101713.75;10441665;28;20099;-67
2022/10/06 20:29:33;;;;;;;6.93;1.45;;;;;;;12.92;59.58;101718.94;10439250;28;20068;-69
2022/10/06 20:34:34;;;;;;;8.80;1.50;;;;;;;12.88;59.80;101714.88;10444869;28;20400;-69
2022/10/06 20:44:56;;;;;;;6.28;1.55;;;;;;;12.63;60.31;101709.25;10444209;28;20511;-67
2022/10/06 20:49:57;;;;;;;8.20;2.10;;;;;;;12.49;60.69;101713.38;10442362;28;20106;-67
2022/10/06 20:54:58;;;;;;;8.00;1.77;;;;;;;12.33;60.71;101709.69;10433968;28;20136;-68
2022/10/06 21:00:00;;;;;;;10.90;2.47;;;;;;;12.25;61.00;101703.19;10433909;28;20075;-68
2022/10/06 21:05:02;;;;;;;8.02;1.40;;;;;;;12.25;60.86;101700.50;10438779;28;20127;-69
2022/10/06 21:10:03;;;;;;;6.35;1.35;;;;;;;12.19;61.15;101702.97;10444310;28;20041;-67
2022/10/06 21:15:06;;;;;;;3.55;0.90;;;;;;;12.03;61.37;101699.09;10442009;28;20041;-68
2022/10/06 21:20:07;;;;;;;4.57;1.27;;;;;;;11.93;61.57;101692.94;10444000;28;20153;-67
2022/10/06 21:25:09;;;;;;;4.53;1.30;;;;;;;11.86;62.05;101699.88;10415921;28;20162;-66
2022/10/06 21:30:12;;;;;;;12.98;2.80;;;;;;;11.83;62.01;101700.22;10443517;28;20041;-67
2022/10/06 21:35:13;;;;;;;14.70;2.67;;;;;;;11.77;61.69;101700.78;10425310;28;20049;-66
2022/10/06 21:40:15;;;;;;;4.07;1.80;;;;;;;11.59;62.14;101682.75;10432448;28;20128;-66
2022/10/06 21:45:16;;;;;;;3.90;0.90;;;;;;;11.58;62.21;101686.44;10450627;28;20037;-67
2022/10/06 21:50:23;;;;;;;4.10;1.53;;;;;;;11.52;62.32;101690.56;10449741;28;20044;-67
2022/10/06 21:55:25;;;;;;;6.30;0.98;;;;;;;11.49;62.28;101690.00;10450809;28;20049;-66
2022/10/06 22:00:26;;;;;;;5.88;0.95;;;;;;;11.41;62.46;101676.44;10448579;28;20051;-66
2022/10/06 22:05:28;;;;;;;7.80;0.73;;;;;;;11.25;62.79;101667.16;10450179;28;20047;-67
2022/10/06 22:10:29;;;;;;;5.32;0.93;;;;;;;11.28;62.67;101671.41;10448207;28;20045;-68
2022/10/06 22:15:34;;;;;;;5.15;1.35;;;;;;;11.23;62.89;101676.38;10450615;28;20060;-67
2022/10/06 22:20:36;;;;;;;5.55;0.85;;;;;;;11.13;62.84;101671.03;10421632;28;20053;-67
2022/10/06 22:25:38;;;;;;;4.60;0.95;;;;;;;11.09;62.94;101672.31;10449650;28;20047;-68
2022/10/06 22:30:39;;;;;;;8.45;1.42;;;;;;;11.03;63.08;101670.22;10449749;28;20602;-67
2022/10/06 22:35:50;;;;;;;11.68;1.20;;;;;;;10.97;63.28;101668.13;10447683;28;20491;-68
2022/10/06 22:40:52;;;;;;;5.10;1.98;;;;;;;10.90;63.33;101665.19;10448819;28;20052;-68
2022/10/06 22:45:53;;;;;;;9.25;1.10;;;;;;;10.90;63.47;101665.19;10446722;28;20132;-68
2022/10/06 22:50:55;;;;;;;7.60;1.02;;;;;;;10.79;63.68;101658.09;10429653;28;20412;-67
2022/10/06 22:55:59;;;;;;;4.57;0.73;;;;;;;10.75;63.54;101654.00;10445759;28;20387;-67
2022/10/06 23:01:13;;;;;;;9.75;0.80;;;;;;;10.71;63.60;101648.06;10448778;28;20127;-67
2022/10/06 23:06:16;;;;;;;8.75;1.30;;;;;;;10.57;64.12;101634.25;10448085;28;22168;-68
2022/10/06 23:11:19;;;;;;;5.75;1.38;;;;;;;10.55;64.04;101636.22;10446704;28;20045;-67
2022/10/06 23:16:21;;;;;;;2.35;1.05;;;;;;;10.58;63.94;101626.00;10447600;28;20355;-67
2022/10/06 23:21:26;;;;;;;5.70;1.13;;;;;;;10.58;64.05;101633.25;10448697;28;20094;-67
2022/10/06 23:26:28;;;;;;;6.65;0.93;;;;;;;10.56;64.01;101621.78;10446614;28;20069;-67
2022/10/06 23:31:29;;;;;;;3.03;1.33;;;;;;;10.52;64.21;101621.22;10429145;28;20045;-67
2022/10/06 23:36:31;;;;;;;6.05;0.88;;;;;;;10.47;64.20;101624.34;10447651;28;21228;-67
2022/10/06 23:41:33;;;;;;;5.80;0.90;;;;;;;10.45;64.07;101620.13;10447775;28;20045;-67
2022/10/06 23:46:34;;;;;;;5.65;0.88;;;;;;;10.41;64.39;101616.03;10420839;28;20124;-67
2022/10/06 23:51:36;;;;;;;8.25;1.10;;;;;;;10.38;64.35;101614.44;10418111;28;20487;-67
2022/10/06 23:56:37;;;;;;;7.72;1.92;;;;;;;10.31;64.61;101608.81;10445178;28;20444;-67
